Time;durP1;ratioP1;P1;durP2;ratioP2;P2;SDS_P1;SDS_P2;PMS_P1;PMS_P2;Temp;Humidity;BMP_temperature;BMP_pressure;BME280_temperature;BME280_humidity;BME280_pressure;Samples;Min_cycle;Max_cycle;Signal;HPM_P1;HPM_P2
2022/04/10 00:00:23;;;;;;;;;;;5.50;99.90;;;;;;5091958;28;19915;-67
2022/04/10 00:02:49;;;;;;;;;;;5.50;99.90;;;;;;5092533;28;19912;-66
2022/04/10 00:05:14;;;;;;;;;;;5.50;99.90;;;;;;5092187;28;19941;-67
2022/04/10 00:07:40;;;;;;;;;;;5.40;99.90;;;;;;5092194;28;20004;-69
2022/04/10 00:10:05;;;;;;;;;;;5.40;99.90;;;;;;5092105;28;19908;-69
2022/04/10 00:12:34;;;;;;;;;;;5.30;99.90;;;;;;5092302;28;19909;-67
2022/04/10 00:15:01;;;;;;;;;;;5.40;99.90;;;;;;5091804;28;19915;-67
2022/04/10 00:17:26;;;;;;;;;;;5.40;99.90;;;;;;5092398;28;20257;-65
2022/04/10 00:19:52;;;;;;;;;;;5.40;99.90;;;;;;5091668;28;19920;-67
2022/04/10 00:22:18;;;;;;;;;;;5.50;99.90;;;;;;5091947;28;19966;-67
2022/04/10 00:24:43;;;;;;;;;;;5.50;99.90;;;;;;5091535;28;19916;-67
2022/04/10 00:27:13;;;;;;;;;;;5.40;99.90;;;;;;5091582;28;19947;-66
2022/04/10 00:29:42;;;;;;;;;;;5.40;99.90;;;;;;5095337;28;20326;-66
2022/04/10 00:32:08;;;;;;;;;;;5.50;99.90;;;;;;5095703;28;20314;-66
2022/04/10 00:34:34;;;;;;;;;;;5.60;99.90;;;;;;5095860;28;19913;-66
2022/04/10 00:37:00;;;;;;;;;;;5.50;99.90;;;;;;5095129;28;19912;-66
2022/04/10 00:39:26;;;;;;;;;;;5.50;99.90;;;;;;5095433;28;19940;-67
2022/04/10 00:41:51;;;;;;;;;;;5.50;99.90;;;;;;5095243;28;19952;-65
2022/04/10 00:44:17;;;;;;;;;;;5.50;99.90;;;;;;5095355;28;19958;-67
2022/04/10 00:46:42;;;;;;;;;;;5.30;99.90;;;;;;5095040;28;19998;-66
2022/04/10 00:49:08;;;;;;;;;;;5.40;99.90;;;;;;5095012;28;19943;-66
2022/04/10 00:51:46;;;;;;;;;;;5.40;99.90;;;;;;5095163;28;19937;-67
2022/04/10 00:54:13;;;;;;;;;;;5.60;99.90;;;;;;5095506;28;19908;-67
2022/04/10 00:56:39;;;;;;;;;;;5.50;99.90;;;;;;5095305;28;19915;-67
2022/04/10 00:59:05;;;;;;;;;;;5.40;99.90;;;;;;5095467;28;20269;-67
2022/04/10 01:01:30;;;;;;;;;;;5.50;99.90;;;;;;5095117;28;19995;-68
2022/04/10 01:03:56;;;;;;;;;;;5.50;99.90;;;;;;5094884;28;19916;-68
2022/04/10 01:06:22;;;;;;;;;;;5.40;99.90;;;;;;5094770;28;20300;-68
2022/04/10 01:08:47;;;;;;;;;;;5.40;99.90;;;;;;5094833;28;20292;-67
2022/04/10 01:11:13;;;;;;;;;;;5.40;99.90;;;;;;5094710;28;19912;-67
2022/04/10 01:13:39;;;;;;;;;;;5.40;99.90;;;;;;5094879;28;19908;-66
2022/04/10 01:16:04;;;;;;;;;;;5.50;99.90;;;;;;5094915;28;19908;-65
2022/04/10 01:18:31;;;;;;;;;;;5.40;99.90;;;;;;5094762;28;19951;-68
2022/04/10 01:20:56;;;;;;;;;;;5.50;99.90;;;;;;5094336;28;20415;-67
2022/04/10 01:23:22;;;;;;;;;;;5.60;99.90;;;;;;5094486;28;19916;-67
2022/04/10 01:25:48;;;;;;;;;;;5.60;99.90;;;;;;5094650;28;20284;-67
2022/04/10 01:28:13;;;;;;;;;;;5.70;99.90;;;;;;5094450;28;19916;-67
2022/04/10 01:30:39;;;;;;;;;;;5.60;99.90;;;;;;5093953;28;19908;-67
2022/04/10 01:33:05;;;;;;;;;;;5.70;99.90;;;;;;5094455;28;19944;-68
2022/04/10 01:35:31;;;;;;;;;;;5.80;99.90;;;;;;5094070;28;19908;-67
2022/04/10 01:37:58;;;;;;;;;;;5.80;99.90;;;;;;5094534;28;20297;-67
2022/04/10 01:40:23;;;;;;;;;;;5.80;99.90;;;;;;5094033;28;19912;-67
2022/04/10 01:42:48;;;;;;;;;;;5.80;99.90;;;;;;5094355;28;19919;-66
2022/04/10 01:45:14;;;;;;;;;;;5.80;99.90;;;;;;5094369;28;20082;-66
2022/04/10 01:47:39;;;;;;;;;;;5.90;99.90;;;;;;5094217;28;19925;-67
2022/04/10 01:50:05;;;;;;;;;;;5.90;99.90;;;;;;5093513;28;19969;-67
2022/04/10 01:52:30;;;;;;;;;;;5.90;99.90;;;;;;5093952;28;20446;-67
2022/04/10 01:54:56;;;;;;;;;;;6.00;99.90;;;;;;5094095;28;19912;-65
2022/04/10 01:57:21;;;;;;;;;;;6.00;99.90;;;;;;5093883;28;19916;-66
2022/04/10 01:59:47;;;;;;;;;;;5.90;99.90;;;;;;5093641;28;19912;-66
2022/04/10 02:02:12;;;;;;;;;;;5.80;99.90;;;;;;5093858;28;19959;-66
2022/04/10 02:04:37;;;;;;;;;;;5.80;99.90;;;;;;5093518;28;20302;-66
2022/04/10 02:07:03;;;;;;;;;;;5.70;99.90;;;;;;5096481;28;20277;-65
2022/04/10 02:09:29;;;;;;;;;;;5.70;99.90;;;;;;5093333;28;19908;-68
2022/04/10 02:11:54;;;;;;;;;;;5.60;99.90;;;;;;5092498;28;19908;-68
2022/04/10 02:14:19;;;;;;;;;;;5.40;99.90;;;;;;5093763;28;20606;-68
2022/04/10 02:16:45;;;;;;;;;;;5.30;99.90;;;;;;5093308;28;19950;-68
2022/04/10 02:19:10;;;;;;;;;;;5.30;99.90;;;;;;5093543;28;19908;-66
2022/04/10 02:21:37;;;;;;;;;;;5.40;99.90;;;;;;5093416;28;19919;-68
2022/04/10 02:24:02;;;;;;;;;;;5.50;99.90;;;;;;5093280;28;19916;-68
2022/04/10 02:26:28;;;;;;;;;;;5.40;99.90;;;;;;5094347;22;19935;-69
2022/04/10 02:28:53;;;;;;;;;;;5.30;99.90;;;;;;5057710;28;20362;-68
2022/04/10 02:31:19;;;;;;;;;;;5.20;99.90;;;;;;5053173;28;19909;-68
2022/04/10 02:33:44;;;;;;;;;;;5.20;99.90;;;;;;5053089;28;19962;-69
2022/04/10 02:36:10;;;;;;;;;;;5.10;99.90;;;;;;5052512;28;19962;-68
2022/04/10 02:38:35;;;;;;;;;;;5.00;99.90;;;;;;5052818;28;19913;-68
2022/04/10 02:41:01;;;;;;;;;;;5.10;99.90;;;;;;5052386;28;19920;-69
2022/04/10 02:43:26;;;;;;;;;;;5.10;99.90;;;;;;5052686;28;19995;-68
2022/04/10 02:45:52;;;;;;;;;;;5.00;99.90;;;;;;5052654;28;20421;-68
2022/04/10 02:48:17;;;;;;;;;;;5.10;99.90;;;;;;5052376;28;19993;-69
2022/04/10 02:50:42;;;;;;;;;;;5.10;99.90;;;;;;5051874;28;19916;-68
2022/04/10 02:53:08;;;;;;;;;;;5.10;99.90;;;;;;5052732;28;19913;-68
2022/04/10 02:55:33;;;;;;;;;;;5.00;99.90;;;;;;5052565;28;19913;-69
2022/04/10 02:57:59;;;;;;;;;;;5.00;99.90;;;;;;5052286;28;19930;-69
2022/04/10 03:00:24;;;;;;;;;;;5.00;99.90;;;;;;5052122;28;19979;-68
2022/04/10 03:02:50;;;;;;;;;;;4.90;99.90;;;;;;5052343;28;20021;-69
2022/04/10 03:05:15;;;;;;;;;;;4.80;99.90;;;;;;5052128;28;19909;-69
2022/04/10 03:07:41;;;;;;;;;;;4.90;99.90;;;;;;5052450;28;19915;-69
2022/04/10 03:10:07;;;;;;;;;;;4.90;99.90;;;;;;5052266;28;19908;-69
2022/04/10 03:12:32;;;;;;;;;;;5.00;99.90;;;;;;5052292;28;19909;-69
2022/04/10 03:14:57;;;;;;;;;;;5.00;99.90;;;;;;5051758;28;19966;-69
2022/04/10 03:17:23;;;;;;;;;;;5.00;99.90;;;;;;5052525;28;19909;-69
2022/04/10 03:19:48;;;;;;;;;;;4.90;99.90;;;;;;5052043;28;19962;-69
2022/04/10 03:22:14;;;;;;;;;;;4.90;99.90;;;;;;5051858;28;20566;-69
2022/04/10 03:24:39;;;;;;;;;;;5.00;99.90;;;;;;5051828;28;19909;-69
2022/04/10 03:27:05;;;;;;;;;;;4.90;99.90;;;;;;5052113;28;20004;-69
2022/04/10 03:29:31;;;;;;;;;;;4.70;99.90;;;;;;5051705;28;19913;-69
2022/04/10 03:31:56;;;;;;;;;;;4.60;99.90;;;;;;5051148;28;19909;-69
2022/04/10 03:34:22;;;;;;;;;;;4.60;99.90;;;;;;5050496;28;19909;-69
2022/04/10 03:36:47;;;;;;;;;;;4.60;99.90;;;;;;5051805;28;20049;-69
2022/04/10 03:39:12;;;;;;;;;;;4.60;99.90;;;;;;5051640;28;19916;-69
2022/04/10 03:41:38;;;;;;;;;;;4.70;99.90;;;;;;5051855;28;19923;-69
2022/04/10 03:44:04;;;;;;;;;;;4.90;99.90;;;;;;5051978;28;20042;-68
2022/04/10 03:46:29;;;;;;;;;;;4.60;99.90;;;;;;5052110;28;19909;-69
2022/04/10 03:48:54;;;;;;;;;;;4.70;99.90;;;;;;5051487;28;19909;-69
2022/04/10 03:51:20;;;;;;;;;;;4.80;99.90;;;;;;5051562;28;19971;-69
2022/04/10 03:53:45;;;;;;;;;;;4.80;99.90;;;;;;5051832;28;19909;-69
2022/04/10 03:56:11;;;;;;;;;;;4.70;99.90;;;;;;5051722;28;20005;-69
2022/04/10 03:58:36;;;;;;;;;;;4.80;99.90;;;;;;5051593;28;20004;-67
2022/04/10 04:01:02;;;;;;;;;;;4.90;99.90;;;;;;5051391;28;19952;-70
2022/04/10 04:03:28;;;;;;;;;;;4.90;99.90;;;;;;5054042;28;20034;-68
2022/04/10 04:05:55;;;;;;;;;;;4.90;99.90;;;;;;5055616;28;19913;-69
2022/04/10 04:08:20;;;;;;;;;;;5.00;99.90;;;;;;5055796;28;19909;-68
2022/04/10 04:10:46;;;;;;;;;;;4.90;99.90;;;;;;5055132;28;19954;-69
2022/04/10 04:13:11;;;;;;;;;;;4.90;99.90;;;;;;5055540;28;20266;-68
2022/04/10 04:15:37;;;;;;;;;;;4.90;99.90;;;;;;5055401;28;20361;-68
2022/04/10 04:18:02;;;;;;;;;;;4.80;99.90;;;;;;5055598;28;19916;-69
2022/04/10 04:20:28;;;;;;;;;;;4.70;99.90;;;;;;5055174;28;19913;-68
2022/04/10 04:22:56;;;;;;;;;;;4.70;99.90;;;;;;5055444;28;19913;-68
2022/04/10 04:25:21;;;;;;;;;;;4.80;99.90;;;;;;5054854;28;20440;-68
2022/04/10 04:27:47;;;;;;;;;;;4.80;99.90;;;;;;5055240;28;20046;-69
2022/04/10 04:30:12;;;;;;;;;;;4.70;99.90;;;;;;5054956;28;20293;-69
2022/04/10 04:32:38;;;;;;;;;;;4.60;99.90;;;;;;5055191;28;19913;-68
2022/04/10 04:35:04;;;;;;;;;;;4.50;99.90;;;;;;5055491;28;19909;-68
2022/04/10 04:37:29;;;;;;;;;;;4.40;99.90;;;;;;5055233;28;19991;-68
2022/04/10 04:39:55;;;;;;;;;;;4.50;99.90;;;;;;5054546;28;19909;-69
2022/04/10 04:42:20;;;;;;;;;;;4.50;99.90;;;;;;5055035;28;19917;-68
2022/04/10 04:44:45;;;;;;;;;;;4.50;99.90;;;;;;5054893;28;19909;-67
2022/04/10 04:47:11;;;;;;;;;;;4.50;99.90;;;;;;5054898;28;19909;-68
2022/04/10 04:49:36;;;;;;;;;;;4.60;99.90;;;;;;5054545;28;19909;-69
2022/04/10 04:52:02;;;;;;;;;;;4.50;99.90;;;;;;5054626;28;19909;-68
2022/04/10 04:54:28;;;;;;;;;;;4.40;99.90;;;;;;5054831;28;19913;-69
2022/04/10 04:56:53;;;;;;;;;;;4.50;99.90;;;;;;5054689;28;19909;-69
2022/04/10 04:59:19;;;;;;;;;;;4.40;99.90;;;;;;5053036;28;19947;-68
2022/04/10 05:01:45;;;;;;;;;;;4.30;99.90;;;;;;5054521;28;19956;-69
2022/04/10 05:04:11;;;;;;;;;;;4.40;99.90;;;;;;5054796;28;20445;-68
2022/04/10 05:06:37;;;;;;;;;;;4.30;99.90;;;;;;5054388;28;20076;-68
2022/04/10 05:09:02;;;;;;;;;;;4.30;99.90;;;;;;5054423;28;20098;-67
2022/04/10 05:11:28;;;;;;;;;;;4.40;99.90;;;;;;5054583;28;19920;-69
2022/04/10 05:13:53;;;;;;;;;;;4.40;99.90;;;;;;5054035;28;19916;-69
2022/04/10 05:16:19;;;;;;;;;;;4.50;99.90;;;;;;5054344;28;19999;-68
2022/04/10 05:18:44;;;;;;;;;;;4.50;99.90;;;;;;5054520;28;19909;-70
2022/04/10 05:21:10;;;;;;;;;;;4.60;99.90;;;;;;5054339;28;19913;-69
2022/04/10 05:23:35;;;;;;;;;;;4.50;99.90;;;;;;5054366;28;19909;-68
2022/04/10 05:26:01;;;;;;;;;;;4.50;99.90;;;;;;5054255;28;19917;-69
2022/04/10 05:28:26;;;;;;;;;;;4.50;99.90;;;;;;5054197;28;20390;-69
2022/04/10 05:30:52;;;;;;;;;;;4.60;99.90;;;;;;5054014;28;19916;-69
2022/04/10 05:33:17;;;;;;;;;;;4.50;99.90;;;;;;5054098;28;20551;-68
2022/04/10 05:35:42;;;;;;;;;;;4.50;99.90;;;;;;5054076;28;19915;-69
2022/04/10 05:38:08;;;;;;;;;;;4.50;99.90;;;;;;5053775;28;19940;-68
2022/04/10 05:40:34;;;;;;;;;;;4.60;99.90;;;;;;5054078;28;19909;-68
2022/04/10 05:42:59;;;;;;;;;;;4.60;99.90;;;;;;5054048;28;20388;-68
2022/04/10 05:45:25;;;;;;;;;;;4.60;99.90;;;;;;5053973;28;19909;-69
2022/04/10 05:47:50;;;;;;;;;;;4.50;99.90;;;;;;5053770;28;19915;-69
2022/04/10 05:50:16;;;;;;;;;;;4.50;99.90;;;;;;5053621;28;19909;-69
2022/04/10 05:52:46;;;;;;;;;;;4.40;99.90;;;;;;5053988;28;19970;-69
2022/04/10 05:55:13;;;;;;;;;;;4.50;99.90;;;;;;5054070;28;19915;-68
2022/04/10 05:57:39;;;;;;;;;;;4.50;99.90;;;;;;5053684;28;19967;-68
2022/04/10 06:00:05;;;;;;;;;;;4.70;99.90;;;;;;5053474;28;19908;-69
2022/04/10 06:02:31;;;;;;;;;;;4.70;99.90;;;;;;5053621;28;19962;-68
2022/04/10 06:04:56;;;;;;;;;;;4.70;99.90;;;;;;5053726;28;20323;-69
2022/04/10 06:07:22;;;;;;;;;;;4.70;99.90;;;;;;5053544;28;20572;-69
2022/04/10 06:09:47;;;;;;;;;;;4.70;99.90;;;;;;5053282;28;20293;-69
2022/04/10 06:12:12;;;;;;;;;;;4.80;99.90;;;;;;5053627;28;20274;-67
2022/04/10 06:14:38;;;;;;;;;;;4.70;99.90;;;;;;5053173;28;20566;-68
2022/04/10 06:17:03;;;;;;;;;;;4.80;99.90;;;;;;5053427;28;20381;-68
2022/04/10 06:19:29;;;;;;;;;;;4.80;99.90;;;;;;5062850;28;19913;-71
2022/04/10 06:21:54;;;;;;;;;;;4.90;99.90;;;;;;5071721;28;20007;-70
2022/04/10 06:24:21;;;;;;;;;;;4.90;99.90;;;;;;5069645;28;19952;-69
2022/04/10 06:26:49;;;;;;;;;;;5.10;99.90;;;;;;5070333;28;19916;-69
2022/04/10 06:29:15;;;;;;;;;;;5.10;99.90;;;;;;5070807;28;20384;-68
2022/04/10 06:31:40;;;;;;;;;;;5.10;99.90;;;;;;5071385;28;19912;-68
2022/04/10 06:34:06;;;;;;;;;;;5.20;99.90;;;;;;5072206;28;20411;-68
2022/04/10 06:36:31;;;;;;;;;;;5.30;99.90;;;;;;5072984;28;19916;-69
2022/04/10 06:38:57;;;;;;;;;;;5.20;99.90;;;;;;5072783;28;19908;-69
2022/04/10 06:41:22;;;;;;;;;;;5.10;99.90;;;;;;5055368;28;19919;-69
2022/04/10 06:43:47;;;;;;;;;;;5.10;99.90;;;;;;5054979;28;19913;-68
2022/04/10 06:46:13;;;;;;;;;;;5.10;99.90;;;;;;5072930;28;19908;-69
2022/04/10 06:48:39;;;;;;;;;;;5.10;99.90;;;;;;5066430;28;20380;-69
2022/04/10 06:51:04;;;;;;;;;;;5.20;99.90;;;;;;5071109;28;19909;-69
2022/04/10 06:53:30;;;;;;;;;;;5.10;99.90;;;;;;5071417;28;19961;-69
2022/04/10 06:55:55;;;;;;;;;;;5.10;99.90;;;;;;5071123;28;19957;-70
2022/04/10 06:58:22;;;;;;;;;;;5.00;99.90;;;;;;5057637;28;19938;-69
2022/04/10 07:00:48;;;;;;;;;;;5.00;99.90;;;;;;5051038;28;19916;-68
2022/04/10 07:03:14;;;;;;;;;;;5.10;99.90;;;;;;5050922;28;20408;-69
2022/04/10 07:05:40;;;;;;;;;;;5.30;99.90;;;;;;5051349;28;19916;-69
2022/04/10 07:08:06;;;;;;;;;;;5.40;99.90;;;;;;5051057;28;19913;-70
2022/04/10 07:10:31;;;;;;;;;;;5.60;99.90;;;;;;5050916;28;19913;-69
2022/04/10 07:12:57;;;;;;;;;;;5.80;99.90;;;;;;5051005;28;20095;-69
2022/04/10 07:15:22;;;;;;;;;;;5.90;99.90;;;;;;5051077;28;19947;-69
2022/04/10 07:17:48;;;;;;;;;;;6.00;99.90;;;;;;5054937;28;19942;-69
2022/04/10 07:20:13;;;;;;;;;;;6.10;99.90;;;;;;5070622;28;19908;-69
2022/04/10 07:25:23;;;;;;;;;;;6.50;99.90;;;;;;5070896;28;20292;-70
2022/04/10 07:27:48;;;;;;;;;;;6.60;99.90;;;;;;5070850;28;19909;-66
2022/04/10 07:30:14;;;;;;;;;;;6.60;99.90;;;;;;5070509;28;19908;-67
2022/04/10 07:32:39;;;;;;;;;;;6.80;99.90;;;;;;5070480;28;20431;-66
2022/04/10 07:35:05;;;;;;;;;;;7.00;99.90;;;;;;5070358;28;20426;-67
2022/04/10 07:37:31;;;;;;;;;;;7.20;99.90;;;;;;5071030;28;19909;-67
2022/04/10 07:39:57;;;;;;;;;;;7.20;99.90;;;;;;5070139;28;20380;-67
2022/04/10 07:42:22;;;;;;;;;;;7.30;99.90;;;;;;5071128;28;19962;-67
2022/04/10 07:44:48;;;;;;;;;;;7.30;99.90;;;;;;5071093;28;20399;-67
2022/04/10 07:47:25;;;;;;;;;;;7.30;99.90;;;;;;5071584;28;19913;-68
2022/04/10 07:49:51;;;;;;;;;;;7.30;99.90;;;;;;5070907;28;19909;-68
2022/04/10 07:52:17;;;;;;;;;;;7.10;99.90;;;;;;5071237;28;19915;-68
2022/04/10 07:54:43;;;;;;;;;;;7.30;99.90;;;;;;5071297;28;20277;-68
2022/04/10 07:57:08;;;;;;;;;;;7.40;99.90;;;;;;5071341;28;19949;-68
2022/04/10 07:59:34;;;;;;;;;;;7.50;99.90;;;;;;5070861;28;20003;-68
2022/04/10 08:01:59;;;;;;;;;;;7.60;99.90;;;;;;5071043;28;19913;-68
2022/04/10 08:04:25;;;;;;;;;;;7.80;99.90;;;;;;5071031;28;19913;-68
2022/04/10 08:06:51;;;;;;;;;;;7.70;99.90;;;;;;5070839;28;19909;-69
2022/04/10 08:09:16;;;;;;;;;;;7.90;99.90;;;;;;5070890;28;19914;-68
2022/04/10 08:11:42;;;;;;;;;;;7.90;99.90;;;;;;5071427;28;19909;-69
2022/04/10 08:14:07;;;;;;;;;;;8.00;99.90;;;;;;5071044;28;19912;-68
2022/04/10 08:16:32;;;;;;;;;;;8.10;99.90;;;;;;5071249;28;20312;-69
2022/04/10 08:18:58;;;;;;;;;;;8.10;99.90;;;;;;5071052;28;20404;-68
2022/04/10 08:21:23;;;;;;;;;;;8.20;99.90;;;;;;5070987;28;20288;-69
2022/04/10 08:23:49;;;;;;;;;;;8.20;99.90;;;;;;5071027;28;19916;-68
2022/04/10 08:26:14;;;;;;;;;;;8.20;99.90;;;;;;5070899;28;19970;-68
2022/04/10 08:28:39;;;;;;;;;;;8.10;99.90;;;;;;5070882;28;19947;-68
2022/04/10 08:31:05;;;;;;;;;;;8.10;99.90;;;;;;5070178;28;20396;-69
2022/04/10 08:33:30;;;;;;;;;;;7.70;99.90;;;;;;5070721;28;19962;-68
2022/04/10 08:35:56;;;;;;;;;;;7.60;99.90;;;;;;5070721;28;20321;-68
2022/04/10 08:38:22;;;;;;;;;;;7.40;99.90;;;;;;5070818;28;20285;-68
2022/04/10 08:40:49;;;;;;;;;;;7.40;99.90;;;;;;5070160;28;20380;-68
2022/04/10 08:43:14;;;;;;;;;;;7.70;99.90;;;;;;5070789;28;19951;-68
2022/04/10 08:45:40;;;;;;;;;;;8.00;99.90;;;;;;5070438;28;19997;-68
2022/04/10 08:48:06;;;;;;;;;;;8.30;99.90;;;;;;5070578;28;20284;-67
2022/04/10 08:50:31;;;;;;;;;;;8.50;99.90;;;;;;5090163;22;19924;-68
2022/04/10 08:52:58;;;;;;;;;;;8.50;99.90;;;;;;5069385;28;20262;-67
2022/04/10 08:55:24;;;;;;;;;;;8.70;99.90;;;;;;5075256;28;20293;-67
2022/04/10 08:57:49;;;;;;;;;;;8.80;98.80;;;;;;5078803;28;19923;-66
2022/04/10 09:00:17;;;;;;;;;;;8.30;98.90;;;;;;5080431;28;20015;-67
2022/04/10 09:02:50;;;;;;;;;;;8.20;99.50;;;;;;5078047;28;19924;-68
2022/04/10 09:05:16;;;;;;;;;;;7.90;99.70;;;;;;5074311;28;19912;-67
2022/04/10 09:08:01;;;;;;;;;;;8.00;99.90;;;;;;5074171;28;19915;-70
2022/04/10 09:10:27;;;;;;;;;;;7.90;99.80;;;;;;5073673;28;19914;-69
2022/04/10 09:12:52;;;;;;;;;;;7.90;99.60;;;;;;5073897;28;20385;-69
2022/04/10 09:15:18;;;;;;;;;;;8.00;99.90;;;;;;5074113;28;19908;-68
2022/04/10 09:17:53;;;;;;;;;;;8.10;99.90;;;;;;5074302;28;19909;-68
2022/04/10 09:20:18;;;;;;;;;;;8.10;99.90;;;;;;5073682;28;19912;-71
2022/04/10 09:22:44;;;;;;;;;;;8.20;99.90;;;;;;5074289;28;19912;-68
2022/04/10 09:25:13;;;;;;;;;;;8.10;99.90;;;;;;5073690;28;19951;-67
2022/04/10 09:27:39;;;;;;;;;;;8.10;99.90;;;;;;5074142;28;19963;-69
2022/04/10 09:30:07;;;;;;;;;;;8.30;99.90;;;;;;5074444;28;20580;-67
2022/04/10 09:32:43;;;;;;;;;;;8.20;99.90;;;;;;5084831;28;19912;-67
2022/04/10 09:35:09;;;;;;;;;;;8.30;99.90;;;;;;5084237;28;19908;-68
2022/04/10 09:37:45;;;;;;;;;;;8.70;99.90;;;;;;5073894;28;20373;-67
2022/04/10 09:40:29;;;;;;;;;;;9.00;99.00;;;;;;5073484;28;20288;-68
2022/04/10 09:43:04;;;;;;;;;;;9.40;98.30;;;;;;5073908;28;19920;-68
2022/04/10 09:45:29;;;;;;;;;;;9.20;96.00;;;;;;5073912;28;19909;-67
2022/04/10 09:47:55;;;;;;;;;;;8.90;95.00;;;;;;5074319;28;19912;-66
2022/04/10 09:50:29;;;;;;;;;;;8.60;95.50;;;;;;5071986;28;19945;-67
2022/04/10 09:52:54;;;;;;;;;;;8.40;96.00;;;;;;5081764;28;19912;-67
2022/04/10 09:55:36;;;;;;;;;;;8.30;96.50;;;;;;5082211;28;19930;-67
2022/04/10 09:58:05;;;;;;;;;;;8.20;96.30;;;;;;5073380;28;20372;-68
2022/04/10 10:00:30;;;;;;;;;;;8.50;96.50;;;;;;5073154;28;20058;-66
2022/04/10 10:02:56;;;;;;;;;;;8.70;96.20;;;;;;5073807;28;20468;-69
2022/04/10 10:05:23;;;;;;;;;;;8.90;95.80;;;;;;5072769;28;19913;-68
2022/04/10 10:07:49;;;;;;;;;;;8.60;94.70;;;;;;5073090;28;20300;-67
2022/04/10 10:10:18;;;;;;;;;;;8.50;94.80;;;;;;5071281;28;19912;-67
2022/04/10 10:12:45;;;;;;;;;;;8.50;94.70;;;;;;5072934;28;19916;-68
2022/04/10 10:15:10;;;;;;;;;;;8.30;96.00;;;;;;5071417;28;19913;-68
2022/04/10 10:17:37;;;;;;;;;;;8.00;98.20;;;;;;5072994;28;19912;-67
2022/04/10 10:20:03;;;;;;;;;;;7.70;99.90;;;;;;5072354;28;19913;-67
2022/04/10 10:22:28;;;;;;;;;;;7.50;99.90;;;;;;5072772;28;19912;-67
2022/04/10 10:24:58;;;;;;;;;;;7.40;99.90;;;;;;5072608;28;19966;-68
2022/04/10 10:27:42;;;;;;;;;;;7.50;99.90;;;;;;5072795;28;20297;-67
2022/04/10 10:30:20;;;;;;;;;;;7.50;99.90;;;;;;5072250;28;19909;-66
2022/04/10 10:32:52;;;;;;;;;;;7.60;99.90;;;;;;5082324;28;20025;-67
2022/04/10 10:35:36;;;;;;;;;;;7.90;99.90;;;;;;5072188;28;19914;-70
2022/04/10 10:38:02;;;;;;;;;;;8.30;99.90;;;;;;5073642;28;20377;-67
2022/04/10 10:40:27;;;;;;;;;;;8.60;99.90;;;;;;5071006;28;19919;-67
2022/04/10 10:42:57;;;;;;;;;;;8.60;99.00;;;;;;5072601;28;20011;-67
2022/04/10 10:45:32;;;;;;;;;;;8.70;99.00;;;;;;5072292;28;19917;-67
2022/04/10 10:48:16;;;;;;;;;;;8.80;98.70;;;;;;5072320;28;20007;-65
2022/04/10 10:50:41;;;;;;;;;;;8.90;98.90;;;;;;5057776;28;19916;-68
2022/04/10 10:53:07;;;;;;;;;;;9.00;97.70;;;;;;5072292;28;19981;-68
2022/04/10 10:55:44;;;;;;;;;;;9.30;97.90;;;;;;5072409;28;19917;-67
2022/04/10 10:58:13;;;;;;;;;;;9.30;96.20;;;;;;5071808;28;20274;-68
2022/04/10 11:00:39;;;;;;;;;;;9.20;96.30;;;;;;5071907;28;19963;-67
2022/04/10 11:03:08;;;;;;;;;;;9.10;96.70;;;;;;5072460;28;19919;-67
2022/04/10 11:05:35;;;;;;;;;;;9.40;97.00;;;;;;5072289;28;19999;-66
2022/04/10 11:08:08;;;;;;;;;;;9.10;95.00;;;;;;5071909;28;20476;-66
2022/04/10 11:10:38;;;;;;;;;;;9.10;95.20;;;;;;5071660;28;19912;-66
2022/04/10 11:13:05;;;;;;;;;;;9.10;95.30;;;;;;5071554;28;19918;-66
2022/04/10 11:15:31;;;;;;;;;;;9.10;95.70;;;;;;5070137;28;19912;-67
2022/04/10 11:18:02;;;;;;;;;;;9.10;95.00;;;;;;5083928;28;20003;-66
2022/04/10 11:20:28;;;;;;;;;;;8.90;95.00;;;;;;5081105;28;19970;-69
2022/04/10 11:22:53;;;;;;;;;;;8.90;95.70;;;;;;5077629;28;19920;-67
2022/04/10 11:25:20;;;;;;;;;;;9.00;95.70;;;;;;5088627;28;19955;-67
2022/04/10 11:27:55;;;;;;;;;;;9.20;96.00;;;;;;5078858;28;19919;-66
2022/04/10 11:30:39;;;;;;;;;;;9.30;94.50;;;;;;5088014;28;19909;-69
2022/04/10 11:33:05;;;;;;;;;;;9.00;93.70;;;;;;5080162;28;19908;-65
2022/04/10 11:35:32;;;;;;;;;;;8.90;94.00;;;;;;5071071;28;19915;-67
2022/04/10 11:38:01;;;;;;;;;;;8.80;94.50;;;;;;5070671;28;19912;-65
2022/04/10 11:40:30;;;;;;;;;;;9.00;94.90;;;;;;5071606;28;19932;-68
2022/04/10 11:42:57;;;;;;;;;;;9.30;94.90;;;;;;5072079;28;19958;-67
2022/04/10 11:45:27;;;;;;;;;;;9.60;94.10;;;;;;5072392;28;19937;-67
2022/04/10 11:47:52;;;;;;;;;;;9.50;92.20;;;;;;5072473;28;19920;-67
2022/04/10 11:50:19;;;;;;;;;;;9.60;91.70;;;;;;5071791;28;19921;-66
2022/04/10 11:52:55;;;;;;;;;;;9.70;91.30;;;;;;5072219;28;19909;-67
2022/04/10 11:55:20;;;;;;;;;;;9.90;91.40;;;;;;5072585;28;19909;-66
2022/04/10 11:57:49;;;;;;;;;;;9.90;90.60;;;;;;5072006;28;19909;-67
2022/04/10 12:00:15;;;;;;;;;;;10.10;90.40;;;;;;5071890;28;20348;-67
2022/04/10 12:02:40;;;;;;;;;;;10.20;87.50;;;;;;5071783;28;20004;-68
2022/04/10 12:05:07;;;;;;;;;;;9.90;88.30;;;;;;5071890;28;19930;-67
2022/04/10 12:07:32;;;;;;;;;;;10.00;85.60;;;;;;5070868;28;19913;-68
2022/04/10 12:09:58;;;;;;;;;;;10.30;86.70;;;;;;5070291;28;19988;-68
2022/04/10 12:12:36;;;;;;;;;;;10.60;85.20;;;;;;5071979;28;19952;-68
2022/04/10 12:15:02;;;;;;;;;;;10.90;84.30;;;;;;5072333;28;19908;-66
2022/04/10 12:17:28;;;;;;;;;;;11.10;82.90;;;;;;5070981;28;20349;-66
2022/04/10 12:19:54;;;;;;;;;;;11.20;81.90;;;;;;5070289;28;20372;-67
2022/04/10 12:22:20;;;;;;;;;;;10.50;80.70;;;;;;5070517;28;20003;-67
2022/04/10 12:24:46;;;;;;;;;;;10.10;80.90;;;;;;5072234;28;19908;-67
2022/04/10 12:27:11;;;;;;;;;;;10.00;80.80;;;;;;5073964;28;20258;-67
2022/04/10 12:29:37;;;;;;;;;;;10.00;80.30;;;;;;5073564;28;19930;-67
2022/04/10 12:32:03;;;;;;;;;;;10.00;80.50;;;;;;5075144;28;20037;-67
2022/04/10 12:34:35;;;;;;;;;;;9.80;82.10;;;;;;5075468;28;19908;-69
2022/04/10 12:37:08;;;;;;;;;;;9.80;81.20;;;;;;5074491;28;20370;-68
2022/04/10 12:39:33;;;;;;;;;;;9.90;81.60;;;;;;5075277;28;19999;-68
2022/04/10 12:42:03;;;;;;;;;;;10.10;81.60;;;;;;5075274;28;20062;-67
2022/04/10 12:44:29;;;;;;;;;;;10.30;80.60;;;;;;5073566;28;20426;-67
2022/04/10 12:46:55;;;;;;;;;;;10.20;79.60;;;;;;5075422;28;19995;-68
2022/04/10 12:49:21;;;;;;;;;;;9.90;80.90;;;;;;5075197;28;19919;-69
2022/04/10 12:51:53;;;;;;;;;;;9.70;81.60;;;;;;5075439;28;19978;-67
2022/04/10 12:54:34;;;;;;;;;;;9.60;82.30;;;;;;5075321;28;19908;-69
2022/04/10 12:57:00;;;;;;;;;;;9.60;82.80;;;;;;5075930;28;19915;-67
2022/04/10 12:59:41;;;;;;;;;;;9.70;83.70;;;;;;5075418;28;19994;-66
2022/04/10 13:02:26;;;;;;;;;;;9.80;84.30;;;;;;5075147;28;20358;-68
2022/04/10 13:04:52;;;;;;;;;;;9.90;81.90;;;;;;5075529;28;20059;-67
2022/04/10 13:07:18;;;;;;;;;;;10.10;79.40;;;;;;5075265;28;19997;-69
2022/04/10 13:09:48;;;;;;;;;;;10.40;78.50;;;;;;5074852;28;19909;-67
2022/04/10 13:12:23;;;;;;;;;;;10.70;77.70;;;;;;5075208;28;19995;-68
2022/04/10 13:14:50;;;;;;;;;;;10.90;77.90;;;;;;5075826;28;19960;-68
2022/04/10 13:17:16;;;;;;;;;;;11.10;77.80;;;;;;5075055;28;20037;-68
2022/04/10 13:19:41;;;;;;;;;;;11.30;77.60;;;;;;5075037;28;20377;-68
2022/04/10 13:22:09;;;;;;;;;;;11.60;76.20;;;;;;5075038;28;19919;-69
2022/04/10 13:24:35;;;;;;;;;;;11.80;74.40;;;;;;5075476;28;19915;-69
2022/04/10 13:27:00;;;;;;;;;;;12.00;73.60;;;;;;5076000;28;19909;-67
2022/04/10 13:29:25;;;;;;;;;;;11.80;69.20;;;;;;5074930;28;19955;-69
2022/04/10 13:31:51;;;;;;;;;;;11.70;70.40;;;;;;5075599;28;19912;-67
2022/04/10 13:34:16;;;;;;;;;;;11.50;69.60;;;;;;5077013;28;19914;-69
2022/04/10 13:36:42;;;;;;;;;;;11.00;69.30;;;;;;5075949;28;19948;-68
2022/04/10 13:39:08;;;;;;;;;;;10.60;68.80;;;;;;5075519;28;19913;-66
2022/04/10 13:41:34;;;;;;;;;;;10.60;70.00;;;;;;5074502;28;20439;-68
2022/04/10 13:44:01;;;;;;;;;;;10.70;69.20;;;;;;5075041;28;19982;-69
2022/04/10 13:46:27;;;;;;;;;;;11.10;68.70;;;;;;5075068;28;19962;-68
2022/04/10 13:48:52;;;;;;;;;;;11.30;67.80;;;;;;5074689;28;19920;-68
2022/04/10 13:51:18;;;;;;;;;;;11.60;67.40;;;;;;5074854;28;20032;-68
2022/04/10 13:53:44;;;;;;;;;;;12.00;65.60;;;;;;5074879;28;19924;-69
2022/04/10 13:56:09;;;;;;;;;;;12.30;63.50;;;;;;5074798;28;19999;-68
2022/04/10 13:58:35;;;;;;;;;;;12.70;62.80;;;;;;5073598;28;19915;-67
2022/04/10 14:01:02;;;;;;;;;;;12.80;60.20;;;;;;5074446;28;19908;-67
2022/04/10 14:03:28;;;;;;;;;;;12.40;59.70;;;;;;5074921;28;19920;-68
2022/04/10 14:05:53;;;;;;;;;;;12.50;61.70;;;;;;5075385;28;20482;-68
2022/04/10 14:08:22;;;;;;;;;;;12.80;60.80;;;;;;5074632;28;19970;-68
2022/04/10 14:10:47;;;;;;;;;;;13.20;59.60;;;;;;5074011;28;20345;-68
2022/04/10 14:13:13;;;;;;;;;;;13.50;57.60;;;;;;5074479;28;19948;-67
2022/04/10 14:15:38;;;;;;;;;;;13.70;56.90;;;;;;5074270;28;19908;-69
2022/04/10 14:18:03;;;;;;;;;;;13.90;56.30;;;;;;5073884;28;19930;-68
2022/04/10 14:20:31;;;;;;;;;;;14.00;55.60;;;;;;5073628;28;20026;-67
2022/04/10 14:22:56;;;;;;;;;;;14.00;54.90;;;;;;5074098;28;19963;-67
2022/04/10 14:25:25;;;;;;;;;;;13.40;54.50;;;;;;5074324;28;19912;-69
2022/04/10 14:27:53;;;;;;;;;;;12.80;54.90;;;;;;5074272;28;20435;-68